createdAt,value
2023-06-05T00:00:00.390Z,563.00
2023-06-05T00:00:59.636Z,564.00
2023-06-05T00:01:59.658Z,563.00
2023-06-05T00:02:59.818Z,561.00
2023-06-05T00:03:59.989Z,559.00
2023-06-05T00:04:59.928Z,557.00
2023-06-05T00:05:59.843Z,559.00
2023-06-05T00:06:59.879Z,558.00
2023-06-05T00:07:59.929Z,558.00
2023-06-05T00:08:59.973Z,559.00
2023-06-05T00:10:00.054Z,558.00
2023-06-05T00:11:00.345Z,557.00
2023-06-05T00:12:00.146Z,557.00
2023-06-05T00:13:00.158Z,556.00
2023-06-05T00:14:00.233Z,556.00
2023-06-05T00:15:00.264Z,558.00
2023-06-05T00:16:00.349Z,555.00
2023-06-05T00:17:00.358Z,555.00
2023-06-05T00:18:01.453Z,555.00
2023-06-05T00:19:00.442Z,552.00
2023-06-05T00:20:00.485Z,553.00
2023-06-05T00:21:00.540Z,552.00
2023-06-05T00:22:00.654Z,553.00
2023-06-05T00:23:00.733Z,553.00
2023-06-05T00:24:00.704Z,551.00
2023-06-05T00:25:00.818Z,551.00
2023-06-05T00:26:00.752Z,551.00
2023-06-05T00:27:00.803Z,553.00
2023-06-05T00:28:00.874Z,558.00
2023-06-05T00:29:00.910Z,559.00
2023-06-05T00:30:00.936Z,557.00
2023-06-05T00:31:00.981Z,560.00
2023-06-05T00:32:01.088Z,559.00
2023-06-05T00:33:01.143Z,558.00
2023-06-05T00:34:01.129Z,555.00
2023-06-05T00:35:01.222Z,554.00
2023-06-05T00:36:01.228Z,553.00
2023-06-05T00:37:01.261Z,551.00
2023-06-05T00:38:01.349Z,549.00
2023-06-05T00:39:01.347Z,551.00
2023-06-05T00:40:01.413Z,553.00
2023-06-05T00:41:01.471Z,553.00
2023-06-05T00:42:01.493Z,552.00
2023-06-05T00:43:01.583Z,553.00
2023-06-05T00:44:01.603Z,554.00
2023-06-05T00:45:01.670Z,554.00
2023-06-05T00:46:01.754Z,554.00
2023-06-05T00:47:01.833Z,555.00
2023-06-05T00:48:01.824Z,554.00
2023-06-05T00:49:01.855Z,554.00
2023-06-05T00:50:01.901Z,554.00
2023-06-05T00:51:01.962Z,554.00
2023-06-05T00:52:02.071Z,555.00
2023-06-05T00:53:02.030Z,557.00
2023-06-05T00:54:02.097Z,558.00
2023-06-05T00:55:02.125Z,558.00
2023-06-05T00:56:02.184Z,558.00
2023-06-05T00:57:02.222Z,557.00
2023-06-05T00:58:02.256Z,556.00
2023-06-05T00:59:02.295Z,554.00
2023-06-05T01:00:02.875Z,553.00
2023-06-05T01:01:02.412Z,554.00
2023-06-05T01:02:02.494Z,559.00
2023-06-05T01:03:02.559Z,559.00
2023-06-05T01:04:02.518Z,559.00
2023-06-05T01:05:02.583Z,559.00
2023-06-05T01:06:02.640Z,558.00
2023-06-05T01:07:02.670Z,555.00
2023-06-05T01:08:02.717Z,549.00
2023-06-05T01:09:02.788Z,546.00
2023-06-05T01:10:02.825Z,554.00
2023-06-05T01:11:02.860Z,555.00
2023-06-05T01:12:02.982Z,555.00
2023-06-05T01:13:03.002Z,555.00
2023-06-05T01:14:03.038Z,558.00
2023-06-05T01:15:03.075Z,557.00
2023-06-05T01:16:03.137Z,556.00
2023-06-05T01:17:03.239Z,556.00
2023-06-05T01:18:03.286Z,559.00
2023-06-05T01:19:03.277Z,560.00
2023-06-05T01:20:03.322Z,560.00
2023-06-05T01:21:03.373Z,560.00
2023-06-05T01:22:03.499Z,557.00
2023-06-05T01:23:03.481Z,557.00
2023-06-05T01:24:03.533Z,557.00
2023-06-05T01:25:03.578Z,557.00
2023-06-05T01:26:03.603Z,557.00
2023-06-05T01:27:03.672Z,554.00
2023-06-05T01:28:03.675Z,554.00
2023-06-05T01:29:03.725Z,552.00
2023-06-05T01:30:03.763Z,550.00
2023-06-05T01:31:03.857Z,551.00
2023-06-05T01:32:03.894Z,552.00
2023-06-05T01:33:04.327Z,550.00
2023-06-05T01:34:03.968Z,550.00
2023-06-05T01:35:04.881Z,547.00
2023-06-05T01:36:04.873Z,549.00
2023-06-05T01:37:04.088Z,549.00
2023-06-05T01:38:04.150Z,549.00
2023-06-05T01:39:04.273Z,548.00
2023-06-05T01:40:04.241Z,549.00
2023-06-05T01:41:04.292Z,550.00
2023-06-05T01:42:04.308Z,551.00
2023-06-05T01:43:04.381Z,549.00
2023-06-05T01:44:04.408Z,548.00
2023-06-05T01:45:05.381Z,547.00
2023-06-05T01:46:04.548Z,547.00
2023-06-05T01:47:04.567Z,545.00
2023-06-05T01:48:04.631Z,547.00
2023-06-05T01:49:04.742Z,547.00
2023-06-05T01:50:04.805Z,548.00
2023-06-05T01:51:04.767Z,546.00
2023-06-05T01:52:04.808Z,543.00
2023-06-05T01:53:04.856Z,542.00
2023-06-05T01:54:04.976Z,541.00
2023-06-05T01:55:04.937Z,541.00
2023-06-05T01:56:04.989Z,540.00
2023-06-05T01:57:05.037Z,541.00
2023-06-05T01:58:05.074Z,543.00
2023-06-05T01:59:05.135Z,545.00
2023-06-05T02:00:05.167Z,545.00
2023-06-05T02:01:05.286Z,546.00
2023-06-05T02:02:05.277Z,546.00
2023-06-05T02:03:05.357Z,548.00
2023-06-05T02:04:05.397Z,550.00
2023-06-05T02:05:05.401Z,551.00
2023-06-05T02:06:05.465Z,553.00
2023-06-05T02:07:05.520Z,552.00
2023-06-05T02:08:06.630Z,550.00
2023-06-05T02:09:05.658Z,548.00
2023-06-05T02:10:05.648Z,545.00
2023-06-05T02:11:05.751Z,546.00
2023-06-05T02:12:05.734Z,547.00
2023-06-05T02:13:05.777Z,548.00
2023-06-05T02:14:05.814Z,546.00
2023-06-05T02:15:05.885Z,547.00
2023-06-05T02:16:05.941Z,543.00
2023-06-05T02:17:05.978Z,541.00
2023-06-05T02:18:06.084Z,541.00
2023-06-05T02:19:06.056Z,543.00
2023-06-05T02:20:06.098Z,545.00
2023-06-05T02:21:06.305Z,548.00
2023-06-05T02:22:06.405Z,549.00
2023-06-05T02:23:06.384Z,547.00
2023-06-05T02:24:06.352Z,545.00
2023-06-05T02:25:06.293Z,549.00
2023-06-05T02:26:06.357Z,549.00
2023-06-05T02:27:06.430Z,548.00
2023-06-05T02:28:06.447Z,548.00
2023-06-05T02:29:06.514Z,548.00
2023-06-05T02:30:06.526Z,548.00
2023-06-05T02:31:06.667Z,547.00
2023-06-05T02:32:06.704Z,550.00
2023-06-05T02:33:06.719Z,552.00
2023-06-05T02:34:06.720Z,550.00
2023-06-05T02:35:06.772Z,549.00
2023-06-05T02:36:06.790Z,551.00
2023-06-05T02:37:06.849Z,550.00
2023-06-05T02:38:06.894Z,551.00
2023-06-05T02:39:07.015Z,551.00
2023-06-05T02:40:06.978Z,548.00
2023-06-05T02:41:07.230Z,542.00
2023-06-05T02:42:07.095Z,540.00
2023-06-05T02:43:07.123Z,540.00
2023-06-05T02:44:07.243Z,543.00
2023-06-05T02:45:07.221Z,545.00
2023-06-05T02:46:07.316Z,542.00
2023-06-05T02:47:07.309Z,544.00
2023-06-05T02:48:07.408Z,545.00
2023-06-05T02:49:07.407Z,547.00
2023-06-05T02:50:07.462Z,547.00
2023-06-05T02:51:07.739Z,547.00
2023-06-05T02:52:07.584Z,549.00
2023-06-05T02:53:07.645Z,550.00
2023-06-05T02:54:09.456Z,552.00
2023-06-05T02:55:07.702Z,553.00
2023-06-05T02:56:07.701Z,552.00
2023-06-05T02:57:07.950Z,552.00
2023-06-05T02:58:07.703Z,553.00
2023-06-05T02:59:08.410Z,550.00
2023-06-05T03:00:07.734Z,549.00
2023-06-05T03:01:07.911Z,548.00
2023-06-05T03:02:07.734Z,548.00
2023-06-05T03:03:07.875Z,547.00
2023-06-05T03:04:07.746Z,548.00
2023-06-05T03:05:07.724Z,548.00
2023-06-05T03:06:07.736Z,546.00
2023-06-05T03:07:07.806Z,546.00
2023-06-05T03:08:07.752Z,546.00
2023-06-05T03:09:07.781Z,548.00
2023-06-05T03:10:07.770Z,550.00
2023-06-05T03:11:08.039Z,549.00
2023-06-05T03:12:07.783Z,549.00
2023-06-05T03:13:07.851Z,548.00
2023-06-05T03:14:07.793Z,548.00
2023-06-05T03:15:07.792Z,548.00
2023-06-05T03:16:07.812Z,546.00
2023-06-05T03:17:07.795Z,545.00
2023-06-05T03:18:07.919Z,547.00
2023-06-05T03:19:07.803Z,549.00
2023-06-05T03:20:07.802Z,547.00
2023-06-05T03:21:08.103Z,549.00
2023-06-05T03:22:07.822Z,550.00
2023-06-05T03:23:07.832Z,551.00
2023-06-05T03:24:08.011Z,550.00
2023-06-05T03:25:07.836Z,550.00
2023-06-05T03:26:07.819Z,549.00
2023-06-05T03:27:07.845Z,548.00
2023-06-05T03:28:07.907Z,548.00
2023-06-05T03:29:07.860Z,549.00
2023-06-05T03:30:07.827Z,550.00
2023-06-05T03:31:07.946Z,551.00
2023-06-05T03:32:07.820Z,550.00
2023-06-05T03:33:07.906Z,550.00
2023-06-05T03:34:08.125Z,551.00
2023-06-05T03:35:07.928Z,553.00
2023-06-05T03:36:07.940Z,553.00
2023-06-05T03:37:08.002Z,551.00
2023-06-05T03:38:08.035Z,551.00
2023-06-05T03:39:08.102Z,552.00
2023-06-05T03:40:08.177Z,551.00
2023-06-05T03:41:08.364Z,552.00
2023-06-05T03:42:08.219Z,554.00
2023-06-05T03:43:08.242Z,554.00
2023-06-05T03:44:08.315Z,554.00
2023-06-05T03:45:08.353Z,556.00
2023-06-05T03:46:08.502Z,553.00
2023-06-05T03:47:08.531Z,553.00
2023-06-05T03:48:08.508Z,554.00
2023-06-05T03:49:08.531Z,552.00
2023-06-05T03:50:08.585Z,552.00
2023-06-05T03:51:08.862Z,552.00
2023-06-05T03:52:08.684Z,550.00
2023-06-05T03:53:08.755Z,550.00
2023-06-05T03:54:08.795Z,552.00
2023-06-05T03:55:08.984Z,551.00
2023-06-05T03:56:08.903Z,550.00
2023-06-05T03:57:08.964Z,551.00
2023-06-05T03:58:09.061Z,546.00
2023-06-05T03:59:09.053Z,544.00
2023-06-05T04:00:09.159Z,547.00
2023-06-05T04:01:09.460Z,547.00
2023-06-05T04:02:09.277Z,546.00
2023-06-05T04:03:09.322Z,546.00
2023-06-05T04:04:09.493Z,547.00
2023-06-05T04:05:09.388Z,549.00
2023-06-05T04:06:09.449Z,552.00
2023-06-05T04:07:09.542Z,552.00
2023-06-05T04:08:09.555Z,553.00
2023-06-05T04:09:09.624Z,555.00
2023-06-05T04:10:09.738Z,558.00
2023-06-05T04:11:09.832Z,557.00
2023-06-05T04:12:09.802Z,556.00
2023-06-05T04:13:09.847Z,557.00
2023-06-05T04:14:09.906Z,554.00
2023-06-05T04:15:09.947Z,555.00
2023-06-05T04:16:10.949Z,556.00
2023-06-05T04:17:10.096Z,558.00
2023-06-05T04:18:11.109Z,556.00
2023-06-05T04:19:10.160Z,555.00
2023-06-05T04:20:10.196Z,553.00
2023-06-05T04:21:10.333Z,552.00
2023-06-05T04:22:10.325Z,554.00
2023-06-05T04:23:10.401Z,554.00
2023-06-05T04:24:10.481Z,554.00
2023-06-05T04:25:10.445Z,554.00
2023-06-05T04:26:10.540Z,553.00
2023-06-05T04:27:10.549Z,553.00
2023-06-05T04:28:10.606Z,553.00
2023-06-05T04:29:10.637Z,553.00
2023-06-05T04:30:10.684Z,555.00
2023-06-05T04:31:11.125Z,556.00
2023-06-05T04:32:10.812Z,556.00
2023-06-05T04:33:10.843Z,555.00
2023-06-05T04:34:10.867Z,555.00
2023-06-05T04:35:10.930Z,555.00
2023-06-05T04:36:10.950Z,555.00
2023-06-05T04:37:11.010Z,554.00
2023-06-05T04:38:11.048Z,554.00
2023-06-05T04:39:11.078Z,557.00
2023-06-05T04:40:11.205Z,559.00
2023-06-05T04:41:11.195Z,558.00
2023-06-05T04:42:15.649Z,557.00
2023-06-05T04:43:11.249Z,556.00
2023-06-05T04:44:11.217Z,555.00
2023-06-05T04:45:11.227Z,553.00
2023-06-05T04:46:11.248Z,557.00
2023-06-05T04:47:11.216Z,557.00
2023-06-05T04:48:11.254Z,560.00
2023-06-05T04:49:11.222Z,564.00
2023-06-05T04:50:11.216Z,565.00
2023-06-05T04:51:11.420Z,563.00
2023-06-05T04:52:11.215Z,561.00
2023-06-05T04:53:11.219Z,560.00
2023-06-05T04:54:11.224Z,559.00
2023-06-05T04:55:11.217Z,559.00
2023-06-05T04:56:11.234Z,559.00
2023-06-05T04:57:11.284Z,560.00
2023-06-05T04:58:11.356Z,559.00
2023-06-05T04:59:11.385Z,558.00
2023-06-05T05:00:11.434Z,557.00
2023-06-05T05:01:11.645Z,554.00
2023-06-05T05:02:11.664Z,556.00
2023-06-05T05:03:11.630Z,555.00
2023-06-05T05:04:11.654Z,553.00
2023-06-05T05:05:11.692Z,552.00
2023-06-05T05:06:11.708Z,555.00
2023-06-05T05:07:11.742Z,554.00
2023-06-05T05:08:11.785Z,553.00
2023-06-05T05:09:11.851Z,553.00
2023-06-05T05:10:11.904Z,553.00
2023-06-05T05:11:11.916Z,554.00
2023-06-05T05:12:11.989Z,555.00
2023-06-05T05:13:12.012Z,553.00
2023-06-05T05:14:12.073Z,554.00
2023-06-05T05:15:12.090Z,554.00
2023-06-05T05:16:12.279Z,556.00
2023-06-05T05:17:12.200Z,555.00
2023-06-05T05:18:12.306Z,563.00
2023-06-05T05:19:12.314Z,570.00
2023-06-05T05:20:12.333Z,617.00
2023-06-05T05:21:12.383Z,601.00
2023-06-05T05:22:12.444Z,603.00
2023-06-05T05:23:12.479Z,607.00
2023-06-05T05:24:12.548Z,650.00
2023-06-05T05:25:12.568Z,663.00
2023-06-05T05:26:12.606Z,665.00
2023-06-05T05:27:12.660Z,709.00
2023-06-05T05:28:12.704Z,757.00
2023-06-05T05:29:12.762Z,760.00
2023-06-05T05:30:12.845Z,744.00
2023-06-05T05:31:13.161Z,993.00
2023-06-05T05:32:13.985Z,892.00
2023-06-05T05:33:12.942Z,872.00
2023-06-05T05:34:13.223Z,896.00
2023-06-05T05:35:13.044Z,909.00
2023-06-05T05:36:13.114Z,927.00
2023-06-05T05:37:13.122Z,953.00
2023-06-05T05:38:13.147Z,1092.00
2023-06-05T05:39:13.179Z,1244.00
2023-06-05T05:40:13.205Z,1140.00
2023-06-05T05:41:13.255Z,1129.00
2023-06-05T05:42:13.263Z,1187.00
2023-06-05T05:43:13.391Z,1202.00
2023-06-05T05:44:13.320Z,1248.00
2023-06-05T05:45:13.343Z,1277.00
2023-06-05T05:46:13.550Z,1435.00
2023-06-05T05:47:13.435Z,1374.00
2023-06-05T05:48:13.467Z,1399.00
2023-06-05T05:49:13.513Z,1470.00
2023-06-05T05:50:13.537Z,1478.00
2023-06-05T05:51:13.520Z,1551.00
2023-06-05T05:52:13.538Z,1532.00
2023-06-05T05:53:13.617Z,1621.00
2023-06-05T05:54:13.593Z,1615.00
2023-06-05T05:55:15.124Z,1617.00
2023-06-05T05:56:13.567Z,1635.00
2023-06-05T05:57:13.577Z,1664.00
2023-06-05T05:58:13.634Z,1682.00
2023-06-05T05:59:15.915Z,1695.00
2023-06-05T06:00:13.694Z,1730.00
2023-06-05T06:01:13.574Z,1808.00
2023-06-05T06:02:13.693Z,1856.00
2023-06-05T06:03:13.709Z,1861.00
2023-06-05T06:04:13.650Z,1876.00
2023-06-05T06:05:13.745Z,1901.00
2023-06-05T06:06:13.626Z,1926.00
2023-06-05T06:07:13.651Z,1985.00
2023-06-05T06:08:13.641Z,2033.00
2023-06-05T06:09:13.680Z,2033.00
2023-06-05T06:10:14.504Z,2086.00
2023-06-05T06:11:13.684Z,2091.00
2023-06-05T06:12:14.007Z,2149.00
2023-06-05T06:13:13.825Z,2181.00
2023-06-05T06:14:13.797Z,2248.00
2023-06-05T06:15:13.936Z,2273.00
2023-06-05T06:16:13.897Z,2290.00
2023-06-05T06:17:13.894Z,2675.00
2023-06-05T06:18:13.989Z,2384.00
2023-06-05T06:19:14.040Z,2355.00
2023-06-05T06:20:14.745Z,2357.00
2023-06-05T06:21:14.008Z,2460.00
2023-06-05T06:22:14.006Z,2486.00
2023-06-05T06:23:14.034Z,2482.00
2023-06-05T06:24:14.087Z,2469.00
2023-06-05T06:25:14.099Z,2492.00
2023-06-05T06:26:14.162Z,2529.00
2023-06-05T06:28:14.166Z,1651.00
2023-06-05T06:29:15.244Z,1448.00
2023-06-05T06:30:14.168Z,1359.00
2023-06-05T06:31:14.194Z,1146.00
2023-06-05T06:32:14.166Z,1047.00
2023-06-05T06:33:14.165Z,1011.00
2023-06-05T06:34:15.113Z,926.00
2023-06-05T06:35:14.207Z,892.00
2023-06-05T06:36:14.265Z,1060.00
2023-06-05T06:37:14.199Z,814.00
2023-06-05T06:38:14.210Z,794.00
2023-06-05T06:39:14.215Z,753.00
2023-06-05T06:40:14.226Z,768.00
2023-06-05T06:41:14.258Z,763.00
2023-06-05T06:42:14.333Z,737.00
2023-06-05T06:43:14.381Z,730.00
2023-06-05T06:44:14.480Z,730.00
2023-06-05T06:45:14.552Z,731.00
2023-06-05T06:46:14.602Z,729.00
2023-06-05T06:47:14.648Z,772.00
2023-06-05T06:48:14.748Z,759.00
2023-06-05T06:49:14.776Z,741.00
2023-06-05T06:50:14.829Z,739.00
2023-06-05T06:51:14.872Z,737.00
2023-06-05T06:52:14.925Z,740.00
2023-06-05T06:53:14.989Z,745.00
2023-06-05T06:54:15.020Z,751.00
2023-06-05T06:55:15.081Z,749.00
2023-06-05T06:56:15.094Z,747.00
2023-06-05T06:57:15.142Z,751.00
2023-06-05T06:58:15.165Z,755.00
2023-06-05T06:59:15.198Z,924.00
2023-06-05T07:00:15.246Z,762.00
2023-06-05T07:01:15.321Z,761.00
2023-06-05T07:02:15.399Z,758.00
2023-06-05T07:03:15.383Z,761.00
2023-06-05T07:04:15.402Z,765.00
2023-06-05T07:05:15.419Z,765.00
2023-06-05T07:06:15.464Z,776.00
2023-06-05T07:07:15.494Z,780.00
2023-06-05T07:08:15.521Z,783.00
2023-06-05T07:09:15.527Z,777.00
2023-06-05T07:10:16.527Z,782.00
2023-06-05T07:11:15.610Z,779.00
2023-06-05T07:12:15.651Z,777.00
2023-06-05T07:13:15.665Z,778.00
2023-06-05T07:14:15.724Z,773.00
2023-06-05T07:15:15.766Z,764.00
2023-06-05T07:16:15.767Z,766.00
2023-06-05T07:17:15.825Z,779.00
2023-06-05T07:18:15.825Z,765.00
2023-06-05T07:19:15.864Z,750.00
2023-06-05T07:20:15.940Z,714.00
2023-06-05T07:21:15.936Z,686.00
2023-06-05T07:22:15.969Z,672.00
2023-06-05T07:23:16.004Z,646.00
2023-06-05T07:24:16.126Z,633.00
2023-06-05T07:25:16.091Z,623.00
2023-06-05T07:26:16.149Z,617.00
2023-06-05T07:27:17.178Z,588.00
2023-06-05T07:28:16.174Z,594.00
2023-06-05T07:29:16.195Z,589.00
2023-06-05T07:30:16.212Z,579.00
2023-06-05T07:31:16.277Z,567.00
2023-06-05T07:32:16.263Z,547.00
2023-06-05T07:33:29.090Z,547.00
2023-06-05T07:34:17.299Z,545.00
2023-06-05T07:35:16.307Z,541.00
2023-06-05T07:36:16.338Z,537.00
2023-06-05T07:37:16.342Z,537.00
2023-06-05T07:38:17.042Z,534.00
2023-06-05T07:39:16.388Z,531.00
2023-06-05T07:40:16.374Z,532.00
2023-06-05T07:41:16.419Z,529.00
2023-06-05T07:42:16.747Z,525.00
2023-06-05T07:43:16.496Z,521.00
2023-06-05T07:44:16.447Z,516.00
2023-06-05T07:45:16.578Z,514.00
2023-06-05T07:46:16.548Z,510.00
2023-06-05T07:47:16.592Z,510.00
2023-06-05T07:48:16.674Z,509.00
2023-06-05T07:49:16.679Z,508.00
2023-06-05T07:50:16.754Z,506.00
2023-06-05T07:51:16.789Z,505.00
2023-06-05T07:52:16.865Z,503.00
2023-06-05T07:53:16.929Z,503.00
2023-06-05T07:54:17.046Z,502.00
2023-06-05T07:55:17.076Z,499.00
2023-06-05T07:56:17.153Z,499.00
2023-06-05T07:57:17.329Z,500.00
2023-06-05T07:58:17.321Z,501.00
2023-06-05T07:59:17.391Z,499.00
2023-06-05T08:00:17.509Z,497.00
2023-06-05T08:01:17.538Z,498.00
2023-06-05T08:02:17.670Z,499.00
2023-06-05T08:03:17.790Z,500.00
2023-06-05T08:04:17.881Z,501.00
2023-06-05T08:05:17.821Z,502.00
2023-06-05T08:06:17.898Z,502.00
2023-06-05T08:07:17.979Z,502.00
2023-06-05T08:08:18.072Z,499.00
2023-06-05T08:09:18.101Z,502.00
2023-06-05T08:10:18.571Z,501.00
2023-06-05T08:11:18.270Z,501.00
2023-06-05T08:12:18.392Z,504.00
2023-06-05T08:13:18.380Z,526.00
2023-06-05T08:14:18.469Z,602.00
2023-06-05T08:15:18.544Z,631.00
2023-06-05T08:16:19.604Z,645.00
2023-06-05T08:17:18.805Z,669.00
2023-06-05T08:18:18.753Z,680.00
2023-06-05T08:19:18.852Z,694.00
2023-06-05T08:20:18.900Z,766.00
2023-06-05T08:21:18.998Z,714.00
2023-06-05T08:22:19.007Z,690.00
2023-06-05T08:23:19.161Z,669.00
2023-06-05T08:24:19.168Z,671.00
2023-06-05T08:25:19.217Z,648.00
2023-06-05T08:26:19.275Z,657.00
2023-06-05T08:27:19.555Z,843.00
2023-06-05T08:28:19.355Z,728.00
2023-06-05T08:29:20.053Z,742.00
2023-06-05T08:30:19.525Z,750.00
2023-06-05T08:31:19.641Z,770.00
2023-06-05T08:32:20.227Z,775.00
2023-06-05T08:33:20.526Z,794.00
2023-06-05T08:34:19.802Z,824.00
2023-06-05T08:35:19.890Z,818.00
2023-06-05T08:36:19.889Z,809.00
2023-06-05T08:37:19.929Z,805.00
2023-06-05T08:38:20.011Z,810.00
2023-06-05T08:39:20.032Z,811.00
2023-06-05T08:40:20.106Z,803.00
2023-06-05T08:41:20.136Z,797.00
2023-06-05T08:42:20.161Z,794.00
2023-06-05T08:43:20.201Z,795.00
2023-06-05T08:44:20.247Z,801.00
2023-06-05T08:45:20.310Z,799.00
2023-06-05T08:46:20.382Z,799.00
2023-06-05T08:47:20.463Z,796.00
2023-06-05T08:48:20.474Z,791.00
2023-06-05T08:49:21.072Z,860.00
2023-06-05T08:50:20.595Z,802.00
2023-06-05T08:51:20.574Z,800.00
2023-06-05T08:52:21.619Z,801.00
2023-06-05T08:53:21.970Z,801.00
2023-06-05T08:54:20.673Z,781.00
2023-06-05T08:55:20.712Z,780.00
2023-06-05T08:56:20.721Z,783.00
2023-06-05T08:57:20.797Z,794.00
2023-06-05T08:58:20.755Z,789.00
2023-06-05T08:59:20.793Z,786.00
2023-06-05T09:00:20.818Z,795.00
2023-06-05T09:01:20.891Z,810.00
2023-06-05T09:02:20.871Z,802.00
2023-06-05T09:03:20.923Z,798.00
2023-06-05T09:04:21.916Z,790.00
2023-06-05T09:22:39.172Z,1010.00
2023-06-05T09:23:39.191Z,955.00
2023-06-05T09:24:39.195Z,899.00
2023-06-05T09:25:39.094Z,901.00
2023-06-05T09:26:39.176Z,897.00
2023-06-05T09:27:39.091Z,894.00
2023-06-05T09:28:39.084Z,907.00
2023-06-05T09:29:39.104Z,908.00
2023-06-05T09:30:39.073Z,910.00
2023-06-05T09:31:39.126Z,904.00
2023-06-05T09:32:39.139Z,898.00
2023-06-05T09:33:39.057Z,900.00
2023-06-05T09:34:39.074Z,896.00
2023-06-05T09:35:39.056Z,875.00
2023-06-05T09:36:39.050Z,871.00
2023-06-05T09:37:39.069Z,870.00
2023-06-05T09:38:39.044Z,870.00
2023-06-05T09:39:39.057Z,866.00
2023-06-05T09:40:39.111Z,867.00
2023-06-05T09:41:39.160Z,861.00
2023-06-05T09:42:39.219Z,872.00
2023-06-05T09:43:39.309Z,875.00
2023-06-05T09:44:39.322Z,875.00
2023-06-05T09:45:39.350Z,892.00
2023-06-05T09:46:39.434Z,865.00
2023-06-05T09:47:53.335Z,857.00
2023-06-05T09:48:40.455Z,868.00
2023-06-05T09:49:39.525Z,868.00
2023-06-05T09:50:39.505Z,869.00
2023-06-05T09:51:39.498Z,867.00
2023-06-05T09:52:39.412Z,867.00
2023-06-05T09:53:39.409Z,876.00
2023-06-05T09:54:39.406Z,883.00
2023-06-05T09:55:39.397Z,889.00
2023-06-05T09:56:39.399Z,892.00
2023-06-05T09:57:39.402Z,886.00
2023-06-05T09:58:39.388Z,896.00
2023-06-05T09:59:39.380Z,874.00
2023-06-05T10:00:39.416Z,886.00
2023-06-05T10:01:39.381Z,879.00
2023-06-05T10:02:39.422Z,873.00
2023-06-05T10:03:39.378Z,871.00
2023-06-05T10:04:39.545Z,876.00
2023-06-05T10:05:39.389Z,878.00
2023-06-05T10:06:39.409Z,881.00
2023-06-05T10:07:39.439Z,886.00
2023-06-05T10:08:39.454Z,880.00
2023-06-05T10:09:39.470Z,880.00
2023-06-05T10:10:39.497Z,886.00
2023-06-05T10:11:39.506Z,958.00
2023-06-05T10:12:39.545Z,968.00
2023-06-05T10:13:39.563Z,912.00
2023-06-05T10:14:39.595Z,910.00
2023-06-05T10:15:39.592Z,884.00
2023-06-05T10:16:39.626Z,894.00
2023-06-05T10:17:39.751Z,972.00
2023-06-05T10:18:39.658Z,1046.00
2023-06-05T10:19:39.679Z,1058.00
2023-06-05T10:20:39.685Z,1084.00
2023-06-05T10:21:39.749Z,1110.00
2023-06-05T10:22:39.706Z,1093.00
2023-06-05T10:23:39.731Z,1094.00
2023-06-05T10:24:39.706Z,1112.00
2023-06-05T10:25:39.696Z,1101.00
2023-06-05T10:26:39.702Z,1107.00
2023-06-05T10:27:39.716Z,1246.00
2023-06-05T10:28:39.823Z,1151.00
2023-06-05T10:29:39.783Z,1190.00
2023-06-05T10:30:39.880Z,1242.00
2023-06-05T10:31:39.923Z,1240.00
2023-06-05T10:32:40.011Z,1437.00
2023-06-05T10:33:40.037Z,1278.00
2023-06-05T10:34:40.095Z,1265.00
2023-06-05T10:35:40.164Z,1245.00
2023-06-05T10:36:40.331Z,1288.00
2023-06-05T10:37:40.300Z,1314.00
2023-06-05T10:38:40.348Z,1315.00
2023-06-05T10:39:40.407Z,1334.00
2023-06-05T10:40:40.462Z,1352.00
2023-06-05T10:41:40.550Z,1586.00
2023-06-05T10:42:40.573Z,1477.00
2023-06-05T10:43:40.642Z,1478.00
2023-06-05T10:44:41.178Z,1567.00
2023-06-05T10:45:40.745Z,1571.00
2023-06-05T10:46:41.323Z,1544.00
2023-06-05T10:47:40.921Z,1538.00
2023-06-05T10:48:40.912Z,1518.00
2023-06-05T10:49:40.947Z,1582.00
2023-06-05T10:50:41.481Z,1644.00
2023-06-05T10:51:41.296Z,1659.00
2023-06-05T10:52:41.094Z,1706.00
2023-06-05T10:53:41.126Z,1713.00
2023-06-05T10:54:41.734Z,1724.00
2023-06-05T10:55:41.215Z,1731.00
2023-06-05T10:56:41.270Z,1736.00
2023-06-05T10:57:41.308Z,1755.00
2023-06-05T10:58:41.378Z,1806.00
2023-06-05T10:59:41.438Z,1811.00
2023-06-05T11:00:41.447Z,1806.00
2023-06-05T11:01:41.557Z,1820.00
2023-06-05T11:02:41.545Z,1845.00
2023-06-05T11:03:41.700Z,1829.00
2023-06-05T11:04:41.601Z,1868.00
2023-06-05T11:05:41.666Z,1862.00
2023-06-05T11:06:41.721Z,1865.00
2023-06-05T11:07:41.767Z,1859.00
2023-06-05T11:08:41.837Z,1749.00
2023-06-05T11:09:41.892Z,1750.00
2023-06-05T11:10:42.408Z,1684.00
2023-06-05T11:11:42.078Z,1581.00
2023-06-05T11:12:42.119Z,1688.00
2023-06-05T11:13:42.091Z,1586.00
2023-06-05T11:14:42.136Z,1609.00
2023-06-05T11:15:42.181Z,1600.00
2023-06-05T11:16:42.280Z,1618.00
2023-06-05T11:17:42.253Z,1483.00
2023-06-05T11:18:42.228Z,1517.00
2023-06-05T11:19:42.236Z,1466.00
2023-06-05T11:20:42.827Z,1459.00
2023-06-05T11:21:42.320Z,1497.00
2023-06-05T11:22:42.286Z,1459.00
2023-06-05T11:23:42.315Z,1516.00
2023-06-05T11:24:42.311Z,1430.00
2023-06-05T11:25:42.313Z,1377.00
2023-06-05T11:26:42.361Z,1399.00
2023-06-05T11:27:42.312Z,1388.00
2023-06-05T11:28:42.308Z,1274.00
2023-06-05T11:29:42.819Z,1249.00
2023-06-05T11:30:47.916Z,1229.00
2023-06-05T11:31:43.394Z,1243.00
2023-06-05T11:32:42.379Z,1234.00
2023-06-05T11:33:42.376Z,1289.00
2023-06-05T11:34:42.305Z,1243.00
2023-06-05T11:35:42.300Z,1247.00
2023-06-05T11:36:42.321Z,1241.00
2023-06-05T11:37:54.541Z,1129.00
2023-06-05T11:38:43.299Z,1107.00
2023-06-05T11:39:42.303Z,1152.00
2023-06-05T11:40:42.292Z,1101.00
2023-06-05T11:41:42.287Z,1079.00
2023-06-05T11:42:43.263Z,1076.00
2023-06-05T11:43:42.311Z,1028.00
2023-06-05T11:44:42.277Z,1024.00
2023-06-05T11:45:44.394Z,1026.00
2023-06-05T11:46:42.370Z,1032.00
2023-06-05T11:47:42.304Z,1032.00
2023-06-05T11:48:42.302Z,1031.00
2023-06-05T11:49:42.429Z,1044.00
2023-06-05T11:50:42.357Z,1034.00
2023-06-05T11:51:42.400Z,1048.00
2023-06-05T11:52:42.513Z,1040.00
2023-06-05T11:53:42.481Z,1002.00
2023-06-05T11:54:42.578Z,949.00
2023-06-05T11:55:42.556Z,961.00
2023-06-05T11:56:42.587Z,1000.00
2023-06-05T11:57:51.177Z,1011.00
2023-06-05T11:58:43.846Z,1012.00
2023-06-05T11:59:42.615Z,1046.00
2023-06-05T12:00:42.616Z,1043.00
2023-06-05T12:01:42.662Z,1048.00
2023-06-05T12:02:42.752Z,1086.00
2023-06-05T12:03:42.715Z,1093.00
2023-06-05T12:04:42.746Z,1104.00
2023-06-05T12:05:42.651Z,1119.00
2023-06-05T12:06:42.619Z,1129.00
2023-06-05T12:07:42.587Z,1133.00
2023-06-05T12:08:42.588Z,1141.00
2023-06-05T12:09:42.584Z,1144.00
2023-06-05T12:10:42.610Z,1142.00
2023-06-05T12:11:42.574Z,1126.00
2023-06-05T12:12:42.634Z,1124.00
2023-06-05T12:13:42.643Z,1118.00
2023-06-05T12:14:42.573Z,1114.00
2023-06-05T12:15:42.611Z,1109.00
2023-06-05T12:16:42.659Z,1100.00
2023-06-05T12:17:42.874Z,1094.00
2023-06-05T12:18:42.655Z,1090.00
2023-06-05T12:19:42.667Z,1088.00
2023-06-05T12:20:43.600Z,1084.00
2023-06-05T12:21:42.715Z,1083.00
2023-06-05T12:22:42.743Z,1082.00
2023-06-05T12:23:42.794Z,1084.00
2023-06-05T12:24:42.781Z,1085.00
2023-06-05T12:25:42.854Z,1086.00
2023-06-05T12:26:42.827Z,1083.00
2023-06-05T12:27:42.995Z,1087.00
2023-06-05T12:28:42.909Z,1087.00
2023-06-05T12:29:42.911Z,1087.00
2023-06-05T12:30:43.853Z,1086.00
2023-06-05T12:31:43.283Z,1085.00
2023-06-05T12:32:43.021Z,1085.00
2023-06-05T12:33:43.154Z,1085.00
2023-06-05T12:34:58.119Z,1087.00
2023-06-05T12:35:44.364Z,1092.00
2023-06-05T12:36:43.039Z,1102.00
2023-06-05T12:37:43.039Z,1099.00
2023-06-05T12:38:43.039Z,1105.00
2023-06-05T12:39:43.118Z,1105.00
2023-06-05T12:41:43.027Z,1107.00